createdAt,value
2017-11-16T00:02:21.286Z,49.08
2017-11-16T00:04:55.383Z,43.47
2017-11-16T00:07:26.974Z,40.88
2017-11-16T00:12:30.740Z,37.50
2017-11-16T00:15:01.405Z,34.63
2017-11-16T00:17:32.590Z,34.28
2017-11-16T00:20:06.924Z,35.90
2017-11-16T00:22:37.385Z,41.17
2017-11-16T00:25:09.830Z,36.80
2017-11-16T00:27:42.216Z,36.70
2017-11-16T00:33:05.167Z,32.20
2017-11-16T00:35:36.911Z,35.53
2017-11-16T00:40:42.174Z,38.92
2017-11-16T00:43:12.791Z,38.03
2017-11-16T00:45:43.198Z,35.53
2017-11-16T00:48:14.422Z,34.60
2017-11-16T00:50:44.634Z,35.25
2017-11-16T00:53:14.537Z,35.97
2017-11-16T00:55:46.540Z,35.03
2017-11-16T00:58:16.756Z,35.65
2017-11-16T01:00:47.148Z,32.20
2017-11-16T01:03:20.237Z,28.25
2017-11-16T01:05:50.575Z,28.30
2017-11-16T01:08:21.628Z,29.85
2017-11-16T01:10:52.390Z,29.60
2017-11-16T01:13:22.687Z,24.98
2017-11-16T01:15:53.423Z,28.95
2017-11-16T01:18:23.728Z,29.27
2017-11-16T01:23:28.459Z,27.87
2017-11-16T01:28:32.656Z,29.48
2017-11-16T01:33:36.749Z,29.50
2017-11-16T01:36:08.585Z,27.67
2017-11-16T01:38:38.668Z,30.75
2017-11-16T01:41:11.297Z,27.85
2017-11-16T01:43:40.984Z,33.10
2017-11-16T01:48:45.760Z,30.55
2017-11-16T01:51:16.268Z,28.42
2017-11-16T01:53:46.709Z,28.08
2017-11-16T01:56:18.081Z,32.22
2017-11-16T01:58:52.706Z,35.03
2017-11-16T02:01:24.149Z,37.25
2017-11-16T02:03:54.192Z,36.58
2017-11-16T02:06:25.814Z,37.35
2017-11-16T02:14:07.502Z,40.67
2017-11-16T02:16:37.650Z,40.60
2017-11-16T02:19:08.583Z,39.58
2017-11-16T02:26:45.291Z,32.22
2017-11-16T02:29:14.931Z,28.25
2017-11-16T02:45:08.081Z,34.58
2017-11-16T03:03:24.722Z,26.90
2017-11-16T03:33:12.771Z,31.33
2017-11-16T03:43:26.854Z,30.42
2017-11-16T04:16:23.862Z,36.15
2017-11-16T04:24:03.330Z,33.35
2017-11-16T04:26:34.186Z,29.15
2017-11-16T04:31:40.881Z,30.62
2017-11-16T04:34:10.678Z,30.70
2017-11-16T04:36:40.829Z,30.45
2017-11-16T04:41:45.434Z,30.12
2017-11-16T04:46:59.761Z,33.47
2017-11-16T04:54:40.271Z,34.40
2017-11-16T04:59:47.739Z,27.95
2017-11-16T05:02:17.652Z,40.70
2017-11-16T05:04:48.017Z,35.83
2017-11-16T05:07:18.714Z,37.20
2017-11-16T05:09:49.401Z,37.67
2017-11-16T05:12:20.843Z,37.08
2017-11-16T05:20:09.684Z,36.80
2017-11-16T05:22:40.785Z,37.22
2017-11-16T05:25:11.343Z,40.70
2017-11-16T05:30:20.321Z,36.03
2017-11-16T05:35:37.937Z,34.00
2017-11-16T05:40:43.204Z,37.97
2017-11-16T05:46:00.970Z,38.95
2017-11-16T05:48:33.106Z,39.85
2017-11-16T05:51:03.855Z,40.03
2017-11-16T05:53:33.899Z,39.70
2017-11-16T05:56:05.144Z,37.03
2017-11-16T05:58:35.286Z,36.25
2017-11-16T06:01:05.282Z,28.15
2017-11-16T06:03:36.316Z,28.85
2017-11-16T06:06:08.261Z,30.35
2017-11-16T06:08:38.552Z,31.45
2017-11-16T06:11:08.753Z,30.75
2017-11-16T06:13:41.535Z,29.80
2017-11-16T06:16:13.504Z,31.65
2017-11-16T06:18:43.507Z,31.48
2017-11-16T06:21:13.893Z,28.98
2017-11-16T06:26:23.188Z,28.50
2017-11-16T06:28:53.088Z,27.15
2017-11-16T06:31:22.863Z,24.10
2017-11-16T06:33:53.558Z,22.67
2017-11-16T06:36:23.755Z,21.12
2017-11-16T06:38:53.521Z,20.25
2017-11-16T06:41:23.270Z,21.83
2017-11-16T06:43:53.290Z,20.77
2017-11-16T06:46:37.244Z,20.40
2017-11-16T06:49:11.000Z,21.25
2017-11-16T06:51:41.239Z,21.92
2017-11-16T06:54:12.710Z,20.05
2017-11-16T06:56:43.952Z,20.15
2017-11-16T06:59:14.835Z,19.75
2017-11-16T07:01:44.919Z,19.58
2017-11-16T07:04:20.131Z,20.17
2017-11-16T07:06:54.051Z,20.00
2017-11-16T07:09:25.534Z,19.30
2017-11-16T07:12:03.105Z,19.73
2017-11-16T07:14:40.262Z,18.12
2017-11-16T07:17:12.336Z,18.17
2017-11-16T07:19:43.485Z,18.40
2017-11-16T07:22:13.444Z,18.87
2017-11-16T07:24:44.665Z,18.00
2017-11-16T07:27:16.227Z,18.17
2017-11-16T07:29:46.096Z,18.52
2017-11-16T07:32:19.692Z,18.00
2017-11-16T07:34:49.731Z,17.65
2017-11-16T07:37:19.649Z,17.58
2017-11-16T07:39:49.441Z,19.80
2017-11-16T07:42:19.340Z,20.05
2017-11-16T07:44:49.226Z,17.85
2017-11-16T07:47:19.060Z,19.80
2017-11-16T07:49:48.840Z,19.17
2017-11-16T07:52:18.690Z,17.15
2017-11-16T07:54:48.375Z,18.10
2017-11-16T07:57:18.062Z,18.20
2017-11-16T08:02:31.942Z,16.10
2017-11-16T08:05:01.865Z,17.42
2017-11-16T08:07:31.847Z,17.00
2017-11-16T08:10:01.766Z,16.08
2017-11-16T08:12:31.653Z,16.83
2017-11-16T08:15:01.809Z,16.98
2017-11-16T08:17:33.689Z,18.27
2017-11-16T08:20:03.594Z,15.50
2017-11-16T08:22:33.550Z,15.88
2017-11-16T08:25:03.555Z,17.58
2017-11-16T08:27:33.414Z,16.83
2017-11-16T08:30:03.473Z,18.85
2017-11-16T08:32:33.666Z,17.75
2017-11-16T08:35:03.573Z,17.55
2017-11-16T08:37:33.546Z,18.45
2017-11-16T08:40:03.552Z,18.37
2017-11-16T08:42:33.874Z,18.73
2017-11-16T08:45:07.397Z,18.70
2017-11-16T08:47:38.138Z,18.62
2017-11-16T08:50:08.495Z,19.33
2017-11-16T08:52:38.184Z,19.42
2017-11-16T08:55:08.350Z,21.05
2017-11-16T08:57:38.358Z,23.62
2017-11-16T09:00:09.557Z,25.60
2017-11-16T09:02:39.249Z,25.73
2017-11-16T09:05:09.061Z,27.13
2017-11-16T09:07:38.980Z,33.33
2017-11-16T09:10:11.442Z,35.03
2017-11-16T09:12:41.799Z,42.55
2017-11-16T09:15:11.352Z,39.83
2017-11-16T09:17:41.216Z,39.17
2017-11-16T09:20:12.017Z,40.92
2017-11-16T09:22:42.080Z,38.70
2017-11-16T09:25:12.088Z,41.65
2017-11-16T09:27:42.369Z,38.20
2017-11-16T09:30:12.156Z,40.47
2017-11-16T09:32:43.129Z,38.15
2017-11-16T09:35:13.615Z,37.22
2017-11-16T09:37:43.321Z,37.67
2017-11-16T09:40:14.571Z,39.72
2017-11-16T09:42:44.573Z,39.10
2017-11-16T09:45:14.772Z,36.80
2017-11-16T09:47:44.594Z,37.33
2017-11-16T09:50:14.745Z,36.42
2017-11-16T09:52:44.456Z,35.85
2017-11-16T09:55:14.551Z,34.22
2017-11-16T09:57:44.841Z,37.15
2017-11-16T10:00:16.890Z,36.15
2017-11-16T10:02:46.701Z,34.13
2017-11-16T10:05:17.361Z,30.67
2017-11-16T10:08:00.999Z,31.87
2017-11-16T10:10:35.147Z,32.15
2017-11-16T10:13:05.272Z,30.67
2017-11-16T10:15:35.121Z,28.05
2017-11-16T10:18:04.897Z,30.85
2017-11-16T10:20:34.846Z,31.73
2017-11-16T10:23:05.555Z,29.37
2017-11-16T10:25:35.597Z,28.52
2017-11-16T10:28:05.426Z,27.83
2017-11-16T10:30:35.265Z,27.27
2017-11-16T10:33:05.317Z,28.15
2017-11-16T10:35:34.717Z,26.60
2017-11-16T10:38:04.209Z,28.87
2017-11-16T10:40:34.112Z,28.27
2017-11-16T10:43:03.721Z,26.60
2017-11-16T10:45:33.833Z,27.07
2017-11-16T10:48:04.526Z,26.80
2017-11-16T10:50:35.038Z,26.63
2017-11-16T10:53:07.901Z,27.03
2017-11-16T10:55:38.567Z,26.97
2017-11-16T10:58:08.320Z,28.73
2017-11-16T11:00:38.232Z,27.63
2017-11-16T11:03:09.462Z,31.17
2017-11-16T11:05:39.215Z,26.70
2017-11-16T11:08:09.384Z,28.60
2017-11-16T11:10:40.495Z,29.43
2017-11-16T11:13:11.078Z,27.23
2017-11-16T11:15:41.669Z,30.07
2017-11-16T11:18:12.644Z,32.07
2017-11-16T11:20:43.852Z,30.07
2017-11-16T11:23:13.463Z,30.27
2017-11-16T11:25:47.530Z,31.47
2017-11-16T11:28:20.359Z,30.60
2017-11-16T11:30:50.303Z,29.17
2017-11-16T11:33:20.124Z,28.33
2017-11-16T11:35:49.864Z,29.07
2017-11-16T11:38:19.695Z,28.67
2017-11-16T11:40:49.316Z,28.20
2017-11-16T11:43:18.932Z,28.93
2017-11-16T11:45:49.267Z,30.87
2017-11-16T11:48:19.068Z,29.53
2017-11-16T11:50:48.945Z,29.13
2017-11-16T11:53:20.797Z,29.47
2017-11-16T11:55:50.743Z,28.23
2017-11-16T11:58:21.309Z,29.03
2017-11-16T12:00:51.005Z,29.10
2017-11-16T12:03:25.359Z,29.97
2017-11-16T12:05:56.660Z,28.80
2017-11-16T12:08:27.900Z,29.33
2017-11-16T12:10:57.564Z,30.10
2017-11-16T12:13:26.767Z,29.27
2017-11-16T12:15:56.493Z,30.17
2017-11-16T12:18:26.094Z,30.90
2017-11-16T12:20:55.772Z,29.07
2017-11-16T12:23:25.926Z,28.20
2017-11-16T12:25:55.511Z,30.00
2017-11-16T12:28:25.238Z,29.00
2017-11-16T12:30:54.517Z,28.23
2017-11-16T12:33:27.983Z,27.00
2017-11-16T12:36:00.903Z,28.07
2017-11-16T12:38:31.716Z,28.33
2017-11-16T12:41:01.426Z,29.20
2017-11-16T12:43:31.915Z,30.33
2017-11-16T12:46:01.217Z,28.03
2017-11-16T12:48:30.985Z,28.23
2017-11-16T12:51:00.665Z,28.33
2017-11-16T12:53:47.603Z,29.30
2017-11-16T12:56:29.862Z,27.17
2017-11-16T12:59:00.435Z,26.10
2017-11-16T13:01:30.268Z,26.90
2017-11-16T13:04:00.074Z,24.50
2017-11-16T13:06:29.791Z,26.40
2017-11-16T13:09:01.245Z,27.70
2017-11-16T13:11:32.921Z,27.83
2017-11-16T13:14:05.851Z,28.70
2017-11-16T13:16:36.602Z,28.13
2017-11-16T13:19:06.259Z,29.10
2017-11-16T13:21:36.463Z,28.90
2017-11-16T13:24:16.291Z,27.07
2017-11-16T13:27:01.373Z,29.40
2017-11-16T13:29:31.829Z,25.77
2017-11-16T13:32:02.304Z,26.10
2017-11-16T13:34:32.825Z,28.42
2017-11-16T13:37:03.622Z,24.37
2017-11-16T13:39:35.402Z,25.15
2017-11-16T13:42:05.229Z,25.37
2017-11-16T13:44:35.109Z,23.90
2017-11-16T13:47:05.524Z,24.05
2017-11-16T13:49:35.406Z,24.85
2017-11-16T13:52:06.197Z,23.12
2017-11-16T13:54:35.840Z,23.70
2017-11-16T13:57:05.784Z,22.50
2017-11-16T13:59:35.937Z,21.98
2017-11-16T14:02:06.805Z,21.23
2017-11-16T14:04:37.670Z,20.77
2017-11-16T14:07:08.510Z,19.60
2017-11-16T14:09:38.510Z,19.80
2017-11-16T14:12:09.612Z,22.62
2017-11-16T14:14:43.855Z,18.95
2017-11-16T14:17:13.832Z,18.83
2017-11-16T14:19:45.689Z,22.00
2017-11-16T14:22:16.984Z,20.58
2017-11-16T14:24:46.515Z,19.20
2017-11-16T14:27:17.117Z,21.05
2017-11-16T14:29:52.324Z,20.33
2017-11-16T14:32:22.370Z,20.45
2017-11-16T14:34:52.382Z,20.90
2017-11-16T14:37:23.573Z,19.50
2017-11-16T14:39:53.896Z,20.08
2017-11-16T14:42:23.655Z,19.35
2017-11-16T14:44:53.706Z,19.87
2017-11-16T14:47:23.678Z,19.42
2017-11-16T14:49:53.585Z,21.10
2017-11-16T14:52:23.512Z,21.55
2017-11-16T14:54:53.802Z,21.40
2017-11-16T14:57:24.820Z,19.25
2017-11-16T14:59:55.042Z,21.08
2017-11-16T15:02:25.782Z,18.60
2017-11-16T15:04:55.882Z,18.90
2017-11-16T15:07:25.733Z,18.75
2017-11-16T15:09:57.310Z,18.17
2017-11-16T15:12:27.805Z,20.27
2017-11-16T15:14:58.155Z,18.45
2017-11-16T15:17:28.360Z,19.58
2017-11-16T15:19:59.031Z,18.17
2017-11-16T15:22:29.248Z,18.27
2017-11-16T15:24:59.595Z,18.75
2017-11-16T15:27:31.669Z,19.00
2017-11-16T15:30:01.560Z,19.58
2017-11-16T15:32:31.487Z,18.48
2017-11-16T15:35:01.899Z,18.50
2017-11-16T15:37:32.412Z,19.58
2017-11-16T15:40:03.658Z,18.12
2017-11-16T15:42:33.639Z,16.85
2017-11-16T15:45:07.380Z,17.65
2017-11-16T15:47:37.499Z,18.48
2017-11-16T15:50:07.829Z,22.17
2017-11-16T15:52:37.658Z,16.20
2017-11-16T15:55:08.925Z,18.02
2017-11-16T15:57:40.025Z,15.32
2017-11-16T16:00:10.268Z,16.15
2017-11-16T16:02:40.153Z,14.45
2017-11-16T16:05:11.168Z,14.18
2017-11-16T16:07:41.063Z,14.48
2017-11-16T16:10:11.428Z,13.13
2017-11-16T16:12:41.282Z,14.23
2017-11-16T16:15:11.220Z,15.65
2017-11-16T16:17:41.259Z,13.65
2017-11-16T16:20:11.250Z,14.55
2017-11-16T16:22:41.362Z,13.68
2017-11-16T16:25:11.276Z,13.35
2017-11-16T16:27:41.180Z,13.85
2017-11-16T16:30:11.062Z,12.37
2017-11-16T16:32:40.614Z,14.20
2017-11-16T16:35:10.772Z,13.88
2017-11-16T16:37:41.692Z,13.25
2017-11-16T16:40:12.225Z,14.80
2017-11-16T16:42:42.245Z,12.98
2017-11-16T16:45:12.325Z,13.77
2017-11-16T16:47:42.139Z,16.12
2017-11-16T16:50:12.120Z,13.07
2017-11-16T16:52:42.512Z,14.15
2017-11-16T16:55:12.770Z,15.23
2017-11-16T16:57:42.720Z,13.70
2017-11-16T17:00:12.582Z,14.07
2017-11-16T17:02:43.308Z,13.75
2017-11-16T17:05:13.319Z,12.45
2017-11-16T17:07:43.413Z,13.15
2017-11-16T17:10:13.194Z,14.40
2017-11-16T17:12:43.147Z,14.13
2017-11-16T17:15:12.673Z,14.32
2017-11-16T17:17:42.514Z,13.90
2017-11-16T17:20:12.913Z,15.80
2017-11-16T17:22:43.858Z,16.42
2017-11-16T17:25:13.878Z,15.82
2017-11-16T17:27:46.143Z,15.20
2017-11-16T17:30:16.641Z,15.05
2017-11-16T17:32:46.464Z,13.38
2017-11-16T17:35:16.397Z,13.27
2017-11-16T17:37:46.403Z,15.65
2017-11-16T17:40:16.296Z,14.30
2017-11-16T17:42:46.079Z,14.40
2017-11-16T17:45:15.686Z,14.90
2017-11-16T17:47:49.442Z,14.40
2017-11-16T17:50:19.330Z,16.00
2017-11-16T17:52:49.134Z,14.10
2017-11-16T17:55:18.907Z,13.80
2017-11-16T17:57:48.412Z,15.68
2017-11-16T18:00:18.141Z,13.50
2017-11-16T18:02:49.541Z,13.13
2017-11-16T18:05:19.138Z,12.65
2017-11-16T18:07:48.898Z,14.25
2017-11-16T18:10:36.170Z,13.20
2017-11-16T18:24:35.396Z,11.95
2017-11-16T18:30:34.595Z,16.37
2017-11-16T18:35:55.836Z,13.10
2017-11-16T18:38:35.455Z,16.50
2017-11-16T18:41:06.834Z,13.48
2017-11-16T18:43:36.644Z,13.50
2017-11-16T18:46:06.613Z,14.13
2017-11-16T18:48:36.534Z,13.60
2017-11-16T18:51:06.534Z,13.20
2017-11-16T18:53:37.239Z,14.20
2017-11-16T18:56:07.138Z,13.20
2017-11-16T18:58:37.020Z,13.90
2017-11-16T19:01:07.216Z,15.15
2017-11-16T19:03:39.219Z,14.73
2017-11-16T19:06:10.160Z,16.40
2017-11-16T19:08:40.065Z,15.02
2017-11-16T19:11:10.090Z,15.65
2017-11-16T19:13:39.916Z,15.13
2017-11-16T19:16:09.989Z,15.38
2017-11-16T19:18:39.900Z,14.25
2017-11-16T19:21:09.867Z,14.35
2017-11-16T19:23:39.591Z,14.43
2017-11-16T19:26:09.680Z,15.18
2017-11-16T19:28:39.538Z,16.00
2017-11-16T19:31:09.515Z,15.05
2017-11-16T19:33:39.637Z,16.05
2017-11-16T19:36:09.791Z,15.43
2017-11-16T19:38:41.214Z,14.38
2017-11-16T19:41:13.346Z,14.23
2017-11-16T19:48:56.942Z,14.02
2017-11-16T19:51:29.153Z,14.20
2017-11-16T19:53:59.214Z,13.82
2017-11-16T19:56:29.395Z,13.95
2017-11-16T19:58:59.965Z,15.70
2017-11-16T20:04:05.358Z,17.90
2017-11-16T20:06:35.860Z,21.25
2017-11-16T20:09:05.603Z,23.02
2017-11-16T20:11:35.744Z,24.05
2017-11-16T20:14:05.963Z,22.20
2017-11-16T20:16:35.943Z,21.55
2017-11-16T20:19:07.109Z,23.23
2017-11-16T20:21:36.953Z,24.45
2017-11-16T20:24:07.013Z,21.80
2017-11-16T20:26:38.051Z,22.17
2017-11-16T20:29:09.016Z,21.95
2017-11-16T20:31:39.432Z,24.52
2017-11-16T20:34:10.167Z,23.67
2017-11-16T20:36:40.091Z,23.55
2017-11-16T20:42:49.198Z,22.00
2017-11-16T20:54:03.506Z,20.92
2017-11-16T20:56:33.415Z,21.70
2017-11-16T20:59:03.211Z,20.95
2017-11-16T21:01:38.054Z,20.00
2017-11-16T21:04:12.382Z,19.67
2017-11-16T21:09:33.377Z,20.12
2017-11-16T21:12:03.907Z,17.37
2017-11-16T21:27:12.290Z,20.17
2017-11-16T21:32:32.881Z,20.70
2017-11-16T21:35:11.121Z,16.77
2017-11-16T21:37:42.884Z,16.60
2017-11-16T21:42:48.532Z,15.98
2017-11-16T21:45:19.517Z,18.90
2017-11-16T21:47:50.474Z,18.40
2017-11-16T21:52:56.202Z,16.25
2017-11-16T21:55:26.898Z,16.10
2017-11-16T21:57:56.863Z,17.50
2017-11-16T22:00:26.625Z,18.62
2017-11-16T22:02:56.587Z,12.55
2017-11-16T22:05:26.924Z,16.83
2017-11-16T22:10:33.932Z,17.10
2017-11-16T22:13:04.858Z,14.10
2017-11-16T22:15:36.474Z,16.42
2017-11-16T22:18:06.827Z,16.58
2017-11-16T22:20:38.543Z,15.40
2017-11-16T22:23:08.623Z,15.90
2017-11-16T22:30:48.121Z,16.60
2017-11-16T22:33:20.566Z,16.12
2017-11-16T22:35:58.298Z,15.18
2017-11-16T22:38:28.976Z,15.15
2017-11-16T22:43:33.931Z,14.32
2017-11-16T22:48:42.405Z,14.50
2017-11-16T22:51:14.635Z,15.57
2017-11-16T22:53:45.371Z,13.90
2017-11-16T22:56:17.708Z,14.07
2017-11-16T23:01:33.172Z,13.77
2017-11-16T23:04:03.071Z,15.00
2017-11-16T23:06:33.776Z,13.93
2017-11-16T23:11:37.653Z,13.60
2017-11-16T23:14:09.081Z,13.48
2017-11-16T23:16:40.785Z,11.85
2017-11-16T23:19:10.875Z,13.80
2017-11-16T23:21:43.478Z,15.23
2017-11-16T23:26:47.919Z,15.25
2017-11-16T23:29:18.071Z,13.98
2017-11-16T23:31:52.185Z,14.25
2017-11-16T23:34:23.922Z,12.80
2017-11-16T23:36:55.796Z,11.30
2017-11-16T23:55:09.491Z,13.15
2017-11-16T23:57:39.876Z,13.10
